Time;durP1;ratioP1;P1;durP2;ratioP2;P2;SDS_P1;SDS_P2;PMS_P1;PMS_P2;Temp;Humidity;BMP_temperature;BMP_pressure;BME280_temperature;BME280_humidity;BME280_pressure;Samples;Min_cycle;Max_cycle;Signal;HPM_P1;HPM_P2
2022/09/25 00:00:51;;;;;;;0.00;0.00;;;15.80;99.90;;;;;;960502;146;27374;-77
2022/09/25 00:03:17;;;;;;;0.10;0.10;;;15.80;99.90;;;;;;959599;146;27311;-77
2022/09/25 00:05:46;;;;;;;0.08;0.08;;;15.80;99.90;;;;;;959343;146;27427;-77
2022/09/25 00:08:11;;;;;;;0.00;0.00;;;15.70;99.90;;;;;;959144;146;27345;-77
2022/09/25 00:10:43;;;;;;;0.00;0.00;;;15.70;99.90;;;;;;953743;146;27454;-77
2022/09/25 00:13:10;;;;;;;0.00;0.00;;;15.70;99.90;;;;;;943609;148;27427;-77
2022/09/25 00:15:36;;;;;;;0.00;0.00;;;15.70;99.90;;;;;;942808;149;27297;-77
2022/09/25 00:18:03;;;;;;;0.00;0.00;;;15.70;99.90;;;;;;942335;149;27472;-77
2022/09/25 00:20:29;;;;;;;0.00;0.00;;;15.70;99.90;;;;;;941947;149;27349;-77
2022/09/25 00:22:59;;;;;;;0.00;0.00;;;15.70;99.90;;;;;;941665;149;27452;-77
2022/09/25 00:25:26;;;;;;;0.00;0.00;;;15.70;99.90;;;;;;941694;149;27336;-77
2022/09/25 00:27:49;;;;;;;0.23;0.15;;;15.70;99.90;;;;;;940896;149;27340;-77
2022/09/25 00:30:16;;;;;;;0.13;0.13;;;15.70;99.90;;;;;;939866;149;27365;-77
2022/09/25 00:32:42;;;;;;;0.00;0.00;;;15.70;99.90;;;;;;942091;149;27438;-77
2022/09/25 00:35:09;;;;;;;0.10;0.10;;;15.70;99.90;;;;;;941891;149;27375;-78
2022/09/25 00:37:36;;;;;;;0.10;0.10;;;15.60;99.90;;;;;;940825;149;27466;-78
2022/09/25 00:40:05;;;;;;;0.30;0.30;;;15.70;99.90;;;;;;941988;149;27318;-78
2022/09/25 00:42:32;;;;;;;0.20;0.20;;;15.60;99.90;;;;;;941360;149;27365;-78
2022/09/25 00:45:01;;;;;;;0.10;0.10;;;15.70;99.90;;;;;;941148;149;27427;-78
2022/09/25 00:47:45;;;;;;;0.00;0.00;;;15.60;99.90;;;;;;941331;149;27396;-77
2022/09/25 00:50:12;;;;;;;0.17;0.17;;;15.60;99.90;;;;;;941402;149;27306;-79
2022/09/25 00:52:38;;;;;;;0.00;0.00;;;15.60;99.90;;;;;;940395;149;27360;-79
2022/09/25 00:55:05;;;;;;;0.00;0.00;;;15.60;99.90;;;;;;942806;149;27381;-79
2022/09/25 00:57:32;;;;;;;0.00;0.00;;;15.60;99.90;;;;;;942417;149;27269;-79
2022/09/25 01:00:01;;;;;;;0.00;0.00;;;15.60;99.90;;;;;;941529;149;27333;-79
2022/09/25 01:02:30;;;;;;;0.07;0.07;;;15.60;99.90;;;;;;940520;149;27353;-77
2022/09/25 01:04:59;;;;;;;0.20;0.20;;;15.60;99.90;;;;;;941343;149;27366;-77
2022/09/25 01:07:26;;;;;;;0.23;0.23;;;15.60;99.90;;;;;;940051;149;27302;-77
2022/09/25 01:09:55;;;;;;;0.27;0.27;;;15.60;99.90;;;;;;940818;149;27421;-77
2022/09/25 01:12:19;;;;;;;0.10;0.10;;;15.60;99.90;;;;;;931031;149;27370;-77
2022/09/25 01:14:46;;;;;;;0.13;0.13;;;15.60;99.90;;;;;;928451;152;27309;-77
2022/09/25 01:17:28;;;;;;;0.20;0.20;;;15.60;99.90;;;;;;945223;151;27950;-77
2022/09/25 01:20:03;;;;;;;0.00;0.00;;;15.60;99.90;;;;;;943323;148;27437;-77
2022/09/25 01:22:54;;;;;;;0.10;0.10;;;15.60;99.90;;;;;;930287;152;27378;-77
2022/09/25 01:25:45;;;;;;;0.10;0.10;;;15.60;99.90;;;;;;944619;148;27325;-77
2022/09/25 01:28:23;;;;;;;0.10;0.10;;;15.60;99.90;;;;;;932160;151;27281;-77
2022/09/25 01:30:50;;;;;;;0.10;0.10;;;15.50;99.90;;;;;;944340;148;28080;-77
2022/09/25 01:33:17;;;;;;;0.00;0.00;;;15.50;99.90;;;;;;944107;151;27349;-77
2022/09/25 01:35:49;;;;;;;0.00;0.00;;;15.50;99.90;;;;;;943751;151;27312;-77
2022/09/25 01:38:33;;;;;;;0.00;0.00;;;15.60;99.90;;;;;;942163;151;27345;-78
2022/09/25 01:41:18;;;;;;;0.00;0.00;;;15.60;99.90;;;;;;929507;152;27328;-77
2022/09/25 01:43:59;;;;;;;0.00;0.00;;;15.60;99.90;;;;;;917976;151;27895;-77
2022/09/25 01:46:29;;;;;;;0.00;0.00;;;15.60;99.90;;;;;;944760;148;27340;-77
2022/09/25 01:48:59;;;;;;;0.10;0.10;;;15.70;99.90;;;;;;930419;152;27825;-77
2022/09/25 01:51:33;;;;;;;0.00;0.00;;;15.70;99.90;;;;;;928440;152;27406;-77
2022/09/25 01:54:00;;;;;;;0.10;0.10;;;15.70;99.90;;;;;;944468;151;27995;-77
2022/09/25 01:56:33;;;;;;;0.10;0.10;;;15.70;99.90;;;;;;927712;152;27470;-77
2022/09/25 01:59:02;;;;;;;0.40;0.40;;;15.70;99.90;;;;;;928148;153;27356;-77
2022/09/25 02:01:28;;;;;;;0.20;0.20;;;15.70;99.90;;;;;;943662;148;27366;-77
2022/09/25 02:03:55;;;;;;;0.30;0.30;;;15.70;99.90;;;;;;945196;148;27297;-77
2022/09/25 02:06:22;;;;;;;0.10;0.10;;;15.70;99.90;;;;;;944329;148;27770;-77
2022/09/25 02:08:52;;;;;;;0.00;0.00;;;15.70;99.90;;;;;;926309;155;27896;-77
2022/09/25 02:11:18;;;;;;;0.00;0.00;;;15.70;99.90;;;;;;930825;149;27389;-77
2022/09/25 02:13:48;;;;;;;0.10;0.10;;;15.70;99.90;;;;;;957690;147;27307;-77
2022/09/25 02:16:13;;;;;;;0.10;0.10;;;15.70;99.90;;;;;;956729;147;27321;-76
2022/09/25 02:21:28;;;;;;;0.10;0.10;;;15.70;99.90;;;;;;957482;147;27398;-79
2022/09/25 02:24:03;;;;;;;0.00;0.00;;;15.70;99.90;;;;;;956554;147;27280;-79
2022/09/25 02:26:29;;;;;;;0.00;0.00;;;15.70;99.90;;;;;;957625;147;27412;-79
2022/09/25 02:28:56;;;;;;;0.08;0.08;;;15.70;99.90;;;;;;956788;147;27371;-79
2022/09/25 02:31:23;;;;;;;0.10;0.10;;;15.60;99.90;;;;;;957880;147;27339;-79
2022/09/25 02:33:49;;;;;;;0.10;0.10;;;15.60;99.90;;;;;;958085;147;27391;-78
2022/09/25 02:36:16;;;;;;;0.00;0.00;;;15.60;99.90;;;;;;958396;147;27772;-77
2022/09/25 02:38:42;;;;;;;0.10;0.10;;;15.60;99.90;;;;;;947155;149;27360;-77
2022/09/25 02:41:14;;;;;;;0.20;0.20;;;15.60;99.90;;;;;;957829;147;27375;-77
2022/09/25 02:43:56;;;;;;;0.00;0.00;;;15.60;99.90;;;;;;937035;150;28871;-78
2022/09/25 02:46:29;;;;;;;0.00;0.00;;;15.60;99.90;;;;;;957495;147;27780;-78
2022/09/25 02:48:55;;;;;;;0.00;0.00;;;15.60;99.90;;;;;;940242;150;27362;-77
2022/09/25 02:51:28;;;;;;;0.00;0.00;;;15.60;99.90;;;;;;956067;147;27384;-77
2022/09/25 02:53:58;;;;;;;0.10;0.10;;;15.60;99.90;;;;;;956970;147;27450;-77
2022/09/25 02:56:45;;;;;;;0.10;0.10;;;15.60;99.90;;;;;;956650;147;28336;-77
2022/09/25 02:59:12;;;;;;;0.10;0.10;;;15.60;99.90;;;;;;956733;147;27264;-77
2022/09/25 03:01:38;;;;;;;0.10;0.10;;;15.60;99.90;;;;;;948821;149;27338;-77
2022/09/25 03:04:05;;;;;;;0.10;0.10;;;15.60;99.90;;;;;;948268;149;27296;-77
2022/09/25 03:06:31;;;;;;;0.25;0.25;;;15.60;99.90;;;;;;957686;147;27424;-77
2022/09/25 03:08:58;;;;;;;0.10;0.10;;;15.60;99.90;;;;;;949573;151;28432;-77
2022/09/25 03:11:25;;;;;;;0.13;0.13;;;15.60;99.90;;;;;;956672;147;27343;-77
2022/09/25 03:13:57;;;;;;;0.20;0.20;;;15.50;99.90;;;;;;956058;147;27433;-77
2022/09/25 03:16:48;;;;;;;0.20;0.20;;;15.50;99.90;;;;;;940348;150;27445;-77
2022/09/25 03:19:14;;;;;;;0.20;0.20;;;15.50;99.90;;;;;;932821;149;27397;-78
2022/09/25 03:21:41;;;;;;;0.20;0.20;;;15.50;99.90;;;;;;957684;147;27363;-78
2022/09/25 03:24:07;;;;;;;0.10;0.10;;;15.50;99.90;;;;;;943631;149;27335;-78
2022/09/25 03:26:34;;;;;;;0.00;0.00;;;15.50;99.90;;;;;;942853;149;27271;-78
2022/09/25 03:29:01;;;;;;;0.10;0.10;;;15.50;99.90;;;;;;942843;149;27301;-78
2022/09/25 03:31:30;;;;;;;0.20;0.20;;;15.50;99.90;;;;;;942720;149;27303;-78
2022/09/25 03:33:57;;;;;;;0.00;0.00;;;15.50;99.90;;;;;;943375;149;27431;-78
2022/09/25 03:36:23;;;;;;;0.10;0.10;;;15.50;99.90;;;;;;943106;149;27271;-78
2022/09/25 03:38:50;;;;;;;0.00;0.00;;;15.50;99.90;;;;;;943371;149;27274;-78
2022/09/25 03:41:19;;;;;;;0.00;0.00;;;15.50;99.90;;;;;;942722;149;27275;-78
2022/09/25 03:43:44;;;;;;;0.10;0.10;;;15.50;99.90;;;;;;942626;149;27311;-78
2022/09/25 03:46:10;;;;;;;0.10;0.10;;;15.50;99.90;;;;;;943237;149;27342;-78
2022/09/25 03:48:36;;;;;;;0.10;0.10;;;15.50;99.90;;;;;;957975;147;27758;-78
2022/09/25 03:51:03;;;;;;;0.20;0.20;;;15.50;99.90;;;;;;957857;147;27304;-78
2022/09/25 03:53:32;;;;;;;0.05;0.05;;;15.50;99.90;;;;;;949514;148;27413;-78
2022/09/25 03:55:56;;;;;;;0.20;0.20;;;15.50;99.90;;;;;;949006;148;27392;-78
2022/09/25 03:58:23;;;;;;;0.10;0.10;;;15.60;99.90;;;;;;949678;148;27423;-78
2022/09/25 04:00:49;;;;;;;0.10;0.10;;;15.50;99.90;;;;;;949232;148;27321;-78
2022/09/25 04:03:16;;;;;;;0.00;0.00;;;15.50;99.90;;;;;;958420;147;27339;-78
2022/09/25 04:05:42;;;;;;;0.20;0.20;;;15.50;99.90;;;;;;956490;147;27432;-78
2022/09/25 04:08:09;;;;;;;0.20;0.20;;;15.60;99.90;;;;;;937878;150;27360;-78
2022/09/25 04:10:39;;;;;;;0.10;0.10;;;15.50;99.90;;;;;;945303;149;27314;-78
2022/09/25 04:13:02;;;;;;;0.20;0.20;;;15.60;99.90;;;;;;943512;150;27388;-78
2022/09/25 04:15:30;;;;;;;0.00;0.00;;;15.50;99.90;;;;;;940127;149;29034;-78
2022/09/25 04:17:55;;;;;;;0.00;0.00;;;15.50;99.90;;;;;;939803;152;27301;-78
2022/09/25 04:20:22;;;;;;;0.10;0.10;;;15.60;99.90;;;;;;939781;149;27301;-78
2022/09/25 04:22:48;;;;;;;0.10;0.10;;;15.50;99.90;;;;;;940292;149;27309;-78
2022/09/25 04:25:15;;;;;;;0.03;0.03;;;15.50;99.90;;;;;;940229;149;27360;-78
2022/09/25 04:27:44;;;;;;;0.50;0.50;;;15.60;99.90;;;;;;940615;152;27348;-78
2022/09/25 04:30:09;;;;;;;0.10;0.10;;;15.60;99.90;;;;;;943754;148;27361;-78
2022/09/25 04:35:20;;;;;;;0.37;0.37;;;15.60;99.90;;;;;;949503;147;27383;-78
2022/09/25 04:37:47;;;;;;;0.10;0.10;;;15.60;99.90;;;;;;943518;148;27561;-78
2022/09/25 04:40:13;;;;;;;0.20;0.20;;;15.60;99.90;;;;;;947836;147;27436;-78
2022/09/25 04:42:42;;;;;;;0.20;0.20;;;15.60;99.90;;;;;;944925;149;27318;-78
2022/09/25 04:45:06;;;;;;;0.05;0.05;;;15.60;99.90;;;;;;944808;149;27533;-78
2022/09/25 04:47:33;;;;;;;0.00;0.00;;;15.60;99.90;;;;;;944462;149;27382;-78
2022/09/25 04:50:00;;;;;;;0.23;0.23;;;15.60;99.90;;;;;;944420;149;27445;-78
2022/09/25 04:52:27;;;;;;;0.30;0.30;;;15.60;99.90;;;;;;944829;149;27353;-77
2022/09/25 04:54:53;;;;;;;0.53;0.53;;;15.60;99.90;;;;;;944921;149;27629;-78
2022/09/25 04:57:19;;;;;;;0.10;0.10;;;15.60;99.90;;;;;;944594;149;27428;-78
2022/09/25 04:59:47;;;;;;;0.10;0.10;;;15.60;99.90;;;;;;944080;149;27328;-78
2022/09/25 05:02:12;;;;;;;0.20;0.20;;;15.70;99.90;;;;;;945349;149;27403;-78
2022/09/25 05:04:39;;;;;;;0.00;0.00;;;15.70;99.90;;;;;;944721;149;27447;-78
2022/09/25 05:07:06;;;;;;;0.35;0.35;;;15.70;99.90;;;;;;944482;149;27363;-78
2022/09/25 05:09:32;;;;;;;0.10;0.10;;;15.70;99.90;;;;;;945157;148;27379;-78
2022/09/25 05:11:59;;;;;;;0.10;0.10;;;15.60;99.90;;;;;;945600;149;27341;-78
2022/09/25 05:14:25;;;;;;;0.30;0.30;;;15.70;99.90;;;;;;941013;149;27750;-78
2022/09/25 05:16:52;;;;;;;0.10;0.10;;;15.60;99.90;;;;;;938167;150;27360;-78
2022/09/25 05:19:19;;;;;;;0.10;0.10;;;15.60;99.90;;;;;;937442;150;27352;-78
2022/09/25 05:21:45;;;;;;;0.20;0.20;;;15.60;99.90;;;;;;944713;149;27423;-78
2022/09/25 05:24:12;;;;;;;0.10;0.10;;;15.60;99.90;;;;;;944692;149;27325;-78
2022/09/25 05:26:39;;;;;;;0.00;0.00;;;15.60;99.90;;;;;;945076;149;27430;-78
2022/09/25 05:29:05;;;;;;;0.10;0.10;;;15.60;99.90;;;;;;944376;151;27469;-78
2022/09/25 05:31:32;;;;;;;0.10;0.10;;;15.60;99.90;;;;;;943835;149;27777;-78
2022/09/25 05:33:58;;;;;;;0.10;0.10;;;15.60;99.90;;;;;;944625;148;27355;-78
2022/09/25 05:36:25;;;;;;;0.13;0.13;;;15.60;99.90;;;;;;945362;151;27330;-78
2022/09/25 05:38:52;;;;;;;0.10;0.10;;;15.60;99.90;;;;;;944345;149;27289;-78
2022/09/25 05:41:18;;;;;;;0.08;0.08;;;15.60;99.90;;;;;;945153;149;27403;-78
2022/09/25 05:43:49;;;;;;;0.10;0.10;;;15.60;99.90;;;;;;943832;149;27480;-78
2022/09/25 05:46:11;;;;;;;0.10;0.10;;;15.60;99.90;;;;;;943765;149;27826;-78
2022/09/25 05:48:38;;;;;;;0.17;0.17;;;15.70;99.90;;;;;;944415;149;27325;-78
2022/09/25 05:51:04;;;;;;;0.10;0.10;;;15.60;99.90;;;;;;945382;149;27270;-78
2022/09/25 05:53:31;;;;;;;0.10;0.10;;;15.70;99.90;;;;;;943608;149;27430;-78
2022/09/25 05:55:57;;;;;;;0.30;0.30;;;15.70;99.90;;;;;;945482;149;27333;-77
2022/09/25 05:58:24;;;;;;;0.10;0.10;;;15.70;99.90;;;;;;945453;149;27450;-78
2022/09/25 06:00:51;;;;;;;0.00;0.00;;;15.70;99.90;;;;;;944612;149;27250;-78
2022/09/25 06:03:18;;;;;;;0.10;0.10;;;15.70;99.90;;;;;;944472;149;27349;-78
2022/09/25 06:05:45;;;;;;;0.10;0.10;;;15.70;99.90;;;;;;945857;149;27305;-78
2022/09/25 06:08:10;;;;;;;0.20;0.20;;;15.70;99.90;;;;;;945281;149;27306;-78
2022/09/25 06:10:37;;;;;;;0.10;0.10;;;15.70;99.90;;;;;;944854;149;27441;-78
2022/09/25 06:13:07;;;;;;;0.08;0.08;;;15.70;99.90;;;;;;945301;149;27363;-78
2022/09/25 06:15:36;;;;;;;0.20;0.20;;;15.70;99.90;;;;;;943957;149;27462;-78
2022/09/25 06:18:00;;;;;;;0.20;0.20;;;15.70;99.90;;;;;;943882;148;27302;-78
2022/09/25 06:20:26;;;;;;;0.30;0.30;;;15.80;99.90;;;;;;944165;149;27302;-78
2022/09/25 06:22:53;;;;;;;0.10;0.10;;;15.80;99.90;;;;;;943656;149;27354;-78
2022/09/25 06:25:20;;;;;;;0.00;0.00;;;15.70;99.90;;;;;;943156;149;28397;-78
2022/09/25 06:27:46;;;;;;;0.20;0.20;;;15.80;99.90;;;;;;944193;149;27305;-78
2022/09/25 06:30:12;;;;;;;0.05;0.05;;;15.70;99.90;;;;;;942380;149;27365;-78
2022/09/25 06:32:39;;;;;;;0.08;0.08;;;15.80;99.90;;;;;;943013;149;27398;-78
2022/09/25 06:35:06;;;;;;;0.20;0.20;;;15.80;99.90;;;;;;943246;149;27521;-78
2022/09/25 06:37:32;;;;;;;0.40;0.40;;;15.80;99.90;;;;;;942939;148;27357;-78
2022/09/25 06:39:59;;;;;;;0.10;0.10;;;15.80;99.90;;;;;;943231;149;27356;-78
2022/09/25 06:42:25;;;;;;;0.23;0.23;;;15.80;99.90;;;;;;943609;149;27310;-78
2022/09/25 06:44:52;;;;;;;0.20;0.20;;;15.80;99.90;;;;;;943233;149;27375;-78
2022/09/25 06:47:19;;;;;;;0.20;0.20;;;15.80;99.90;;;;;;943261;149;27329;-78
2022/09/25 06:49:45;;;;;;;0.10;0.10;;;15.80;99.90;;;;;;943101;149;27349;-78
2022/09/25 06:52:12;;;;;;;0.20;0.20;;;15.80;99.90;;;;;;943716;149;27376;-78
2022/09/25 06:54:38;;;;;;;0.10;0.10;;;15.80;99.90;;;;;;944164;149;27419;-78
2022/09/25 06:57:08;;;;;;;0.20;0.20;;;15.80;99.90;;;;;;944110;149;27365;-78
2022/09/25 06:59:32;;;;;;;0.20;0.20;;;15.90;99.90;;;;;;942991;149;27389;-78
2022/09/25 07:03:43;;;;;;;0.20;0.20;;;15.80;99.90;;;;;;943711;149;27473;-78
2022/09/25 07:04:25;;;;;;;0.10;0.10;;;15.90;99.90;;;;;;941407;149;27408;-78
2022/09/25 07:06:55;;;;;;;0.10;0.10;;;15.90;99.90;;;;;;943207;149;27426;-78
2022/09/25 07:09:18;;;;;;;0.20;0.20;;;15.90;99.90;;;;;;943206;149;27269;-78
2022/09/25 07:11:46;;;;;;;0.20;0.20;;;15.90;99.90;;;;;;941710;149;27772;-78
2022/09/25 07:14:11;;;;;;;0.13;0.13;;;15.90;99.90;;;;;;943252;149;27454;-78
2022/09/25 07:16:38;;;;;;;0.25;0.25;;;15.90;99.90;;;;;;943205;149;27412;-78
2022/09/25 07:19:04;;;;;;;0.20;0.20;;;15.90;99.90;;;;;;943551;149;27342;-78
2022/09/25 07:21:31;;;;;;;0.10;0.10;;;15.90;99.90;;;;;;943048;149;27402;-78
2022/09/25 07:23:57;;;;;;;0.10;0.10;;;15.90;99.90;;;;;;943850;149;27325;-78
2022/09/25 07:26:24;;;;;;;0.35;0.35;;;15.90;99.90;;;;;;943579;149;27411;-78
2022/09/25 07:28:54;;;;;;;0.25;0.25;;;15.90;99.90;;;;;;943594;148;27453;-78
2022/09/25 07:31:20;;;;;;;0.35;0.35;;;15.90;99.90;;;;;;943784;149;28583;-78
2022/09/25 07:33:47;;;;;;;0.30;0.30;;;15.90;99.90;;;;;;943964;149;27408;-79
2022/09/25 07:36:13;;;;;;;0.25;0.25;;;15.90;99.90;;;;;;944111;149;27392;-78
2022/09/25 07:38:40;;;;;;;0.30;0.30;;;15.90;99.90;;;;;;943151;149;27418;-78
2022/09/25 07:41:07;;;;;;;0.20;0.20;;;15.90;99.90;;;;;;944050;149;27358;-78
2022/09/25 07:43:33;;;;;;;0.70;0.70;;;15.90;99.90;;;;;;943468;149;27391;-78
2022/09/25 07:46:00;;;;;;;0.80;0.80;;;16.00;99.90;;;;;;943281;149;27383;-78
2022/09/25 07:48:29;;;;;;;0.37;0.37;;;16.00;99.90;;;;;;944462;149;27437;-78
2022/09/25 07:50:54;;;;;;;0.72;0.72;;;16.00;99.90;;;;;;943527;149;27274;-78
2022/09/25 07:53:19;;;;;;;0.90;0.90;;;16.00;99.90;;;;;;943153;149;27365;-78
2022/09/25 07:55:46;;;;;;;0.42;0.42;;;16.00;99.90;;;;;;943643;149;28021;-78
2022/09/25 07:58:13;;;;;;;0.20;0.20;;;16.00;99.90;;;;;;943608;149;27345;-78
2022/09/25 08:00:42;;;;;;;0.30;0.30;;;16.00;99.90;;;;;;944134;149;27306;-78
2022/09/25 08:03:10;;;;;;;0.20;0.20;;;16.00;99.90;;;;;;943482;149;27446;-78
2022/09/25 08:05:35;;;;;;;0.40;0.40;;;16.00;99.90;;;;;;943220;149;27345;-78
2022/09/25 08:08:02;;;;;;;0.42;0.42;;;16.00;99.90;;;;;;943206;149;27369;-78
2022/09/25 08:10:28;;;;;;;0.30;0.30;;;16.00;99.90;;;;;;941724;149;27296;-78
2022/09/25 08:12:55;;;;;;;0.20;0.20;;;16.00;99.90;;;;;;941841;149;27299;-78
2022/09/25 08:15:22;;;;;;;0.35;0.35;;;16.00;99.90;;;;;;944131;149;27389;-78
2022/09/25 08:17:48;;;;;;;0.37;0.37;;;16.00;99.90;;;;;;945498;149;27826;-78
2022/09/25 08:20:15;;;;;;;0.10;0.10;;;16.00;99.90;;;;;;944826;148;27372;-78
2022/09/25 08:22:41;;;;;;;0.50;0.45;;;16.00;99.90;;;;;;945586;149;27441;-78
2022/09/25 08:25:08;;;;;;;0.40;0.40;;;16.10;99.90;;;;;;945182;149;28234;-78
2022/09/25 08:27:39;;;;;;;0.40;0.40;;;16.00;99.90;;;;;;945324;149;27762;-78
2022/09/25 08:30:02;;;;;;;0.45;0.45;;;16.00;99.90;;;;;;944933;148;27329;-78
2022/09/25 08:32:28;;;;;;;0.47;0.47;;;16.00;99.90;;;;;;945826;149;27368;-78
2022/09/25 08:34:55;;;;;;;0.28;0.28;;;16.10;99.90;;;;;;945291;149;27369;-78
2022/09/25 08:37:21;;;;;;;0.50;0.50;;;16.10;99.90;;;;;;945101;151;27437;-77
2022/09/25 08:39:48;;;;;;;0.20;0.20;;;16.10;99.90;;;;;;945072;149;27356;-77
2022/09/25 08:42:20;;;;;;;0.28;0.28;;;16.10;99.90;;;;;;944800;149;27318;-77
2022/09/25 08:49:00;;;;;;;0.30;0.30;;;16.10;99.90;;;;;;933795;151;27400;-77
2022/09/25 08:50:16;;;;;;;0.40;0.40;;;16.20;99.90;;;;;;944025;149;27321;-77
2022/09/25 08:52:43;;;;;;;0.20;0.20;;;16.20;99.90;;;;;;943639;151;27341;-78
2022/09/25 08:55:12;;;;;;;0.40;0.40;;;16.30;99.90;;;;;;944806;149;27345;-77
2022/09/25 08:57:39;;;;;;;0.40;0.40;;;16.30;99.90;;;;;;943938;149;27457;-77
2022/09/25 09:00:08;;;;;;;0.33;0.33;;;16.40;99.90;;;;;;943634;149;27380;-77
2022/09/25 09:02:38;;;;;;;0.10;0.10;;;16.40;99.90;;;;;;938443;149;27336;-78
2022/09/25 09:05:04;;;;;;;1.02;1.00;;;16.50;99.90;;;;;;944338;149;27454;-77
2022/09/25 09:07:39;;;;;;;4.42;4.10;;;16.50;99.90;;;;;;944805;149;27349;-77
2022/09/25 09:10:15;;;;;;;5.47;5.08;;;16.60;99.90;;;;;;943472;149;27373;-77
2022/09/25 09:12:44;;;;;;;5.40;5.00;;;16.60;99.90;;;;;;943242;149;27531;-78
2022/09/25 09:15:36;;;;;;;5.08;4.67;;;16.70;99.90;;;;;;945139;148;27388;-78
2022/09/25 09:18:02;;;;;;;6.53;5.92;;;16.80;99.90;;;;;;944018;149;27369;-77
2022/09/25 09:20:41;;;;;;;6.25;5.72;;;16.90;99.90;;;;;;928040;151;27469;-77
2022/09/25 09:23:08;;;;;;;6.05;5.45;;;17.00;99.90;;;;;;944465;151;27341;-77
2022/09/25 09:25:37;;;;;;;6.22;5.78;;;17.10;99.90;;;;;;944782;149;27438;-77
2022/09/25 09:28:03;;;;;;;5.92;5.45;;;17.20;99.90;;;;;;942680;151;27349;-77
2022/09/25 09:30:39;;;;;;;6.08;5.58;;;17.40;99.90;;;;;;944156;149;27336;-77
2022/09/25 09:33:24;;;;;;;6.10;5.60;;;17.50;99.90;;;;;;943550;149;27389;-77
2022/09/25 09:36:04;;;;;;;5.70;5.30;;;17.70;99.90;;;;;;943781;151;27298;-78
2022/09/25 09:38:30;;;;;;;6.22;5.72;;;17.90;99.90;;;;;;942986;149;27433;-78
2022/09/25 09:40:59;;;;;;;5.72;5.30;;;18.00;99.90;;;;;;944062;151;27357;-78
2022/09/25 09:43:42;;;;;;;5.28;4.87;;;18.10;99.90;;;;;;944557;151;27377;-78
2022/09/25 09:46:31;;;;;;;5.35;4.95;;;18.30;99.90;;;;;;945732;151;27305;-78
2022/09/25 09:49:13;;;;;;;5.30;4.87;;;18.40;99.90;;;;;;944952;151;27301;-78
2022/09/25 09:51:39;;;;;;;4.97;4.58;;;18.50;99.90;;;;;;944448;151;27328;-78
2022/09/25 09:54:09;;;;;;;5.65;5.17;;;18.60;99.90;;;;;;931856;151;27258;-78
2022/09/25 09:56:37;;;;;;;5.83;5.33;;;18.70;99.90;;;;;;944416;151;27375;-78
2022/09/25 09:59:05;;;;;;;5.92;5.45;;;18.70;99.90;;;;;;945419;151;27281;-78
2022/09/25 10:01:35;;;;;;;6.65;6.15;;;18.70;99.90;;;;;;945357;151;27372;-78
2022/09/25 10:04:09;;;;;;;6.50;6.03;;;18.70;99.90;;;;;;945247;151;27414;-78
2022/09/25 10:06:36;;;;;;;6.45;5.90;;;18.70;99.90;;;;;;941980;151;27482;-78
2022/09/25 10:09:02;;;;;;;6.10;5.55;;;18.70;99.90;;;;;;943975;151;27310;-78
2022/09/25 10:11:30;;;;;;;6.08;5.58;;;18.80;99.90;;;;;;944659;151;27358;-78
2022/09/25 10:13:58;;;;;;;5.97;5.47;;;18.80;99.90;;;;;;945655;151;27337;-78
2022/09/25 10:16:22;;;;;;;5.80;5.22;;;18.80;99.90;;;;;;944930;151;27304;-78
2022/09/25 10:19:06;;;;;;;5.87;5.40;;;18.80;99.90;;;;;;944741;151;27365;-78
2022/09/25 10:21:36;;;;;;;5.67;5.17;;;18.90;99.90;;;;;;944806;151;27333;-78
2022/09/25 10:24:02;;;;;;;5.37;4.97;;;18.90;99.90;;;;;;943976;151;27402;-78
2022/09/25 10:26:35;;;;;;;6.08;5.58;;;19.00;99.90;;;;;;944805;149;27782;-78
2022/09/25 10:29:04;;;;;;;4.92;4.53;;;19.10;99.90;;;;;;944705;149;27392;-78
2022/09/25 10:31:30;;;;;;;6.17;5.58;;;19.10;99.90;;;;;;943518;149;27347;-78
2022/09/25 10:34:00;;;;;;;7.03;6.42;;;19.20;99.90;;;;;;941741;149;27373;-77
2022/09/25 10:36:35;;;;;;;6.67;6.08;;;19.30;99.90;;;;;;944224;149;27442;-78
2022/09/25 10:39:02;;;;;;;7.00;6.42;;;19.30;99.90;;;;;;943772;149;27450;-77
2022/09/25 10:41:31;;;;;;;6.22;5.62;;;19.40;99.90;;;;;;944131;149;27312;-78
2022/09/25 10:43:55;;;;;;;5.67;5.17;;;19.50;99.90;;;;;;944100;149;27442;-78
2022/09/25 10:52:04;;;;;;;6.47;5.87;;;19.70;99.90;;;;;;944704;151;27371;-78
2022/09/25 10:54:29;;;;;;;6.72;6.12;;;19.70;99.90;;;;;;944723;151;27489;-78
2022/09/25 10:56:56;;;;;;;6.70;6.03;;;19.70;99.90;;;;;;944665;149;27355;-78
2022/09/25 10:59:22;;;;;;;7.20;6.55;;;19.60;99.90;;;;;;944614;149;27274;-78
2022/09/25 11:01:52;;;;;;;5.87;5.37;;;19.60;99.90;;;;;;944825;151;27337;-78
2022/09/25 11:04:28;;;;;;;5.67;5.28;;;19.50;99.90;;;;;;943917;151;27365;-78
2022/09/25 11:06:57;;;;;;;7.00;6.30;;;19.40;99.90;;;;;;944448;151;27399;-78
2022/09/25 11:09:24;;;;;;;7.25;6.65;;;19.30;99.90;;;;;;944363;151;27270;-78
2022/09/25 11:11:51;;;;;;;7.85;7.05;;;19.20;99.90;;;;;;944890;151;27297;-78
2022/09/25 11:14:24;;;;;;;7.17;6.58;;;19.10;99.90;;;;;;943855;151;27329;-78
2022/09/25 11:16:53;;;;;;;7.80;7.15;;;19.10;99.90;;;;;;944711;151;27472;-78
2022/09/25 11:19:28;;;;;;;7.83;7.12;;;19.10;99.90;;;;;;943928;149;28412;-78
2022/09/25 11:21:58;;;;;;;7.22;6.62;;;19.10;99.90;;;;;;943928;149;27277;-78
2022/09/25 11:24:54;;;;;;;7.75;6.72;;;19.10;99.90;;;;;;944516;149;27376;-78
2022/09/25 11:27:36;;;;;;;7.45;6.85;;;19.10;99.90;;;;;;911714;149;27431;-78
2022/09/25 11:30:05;;;;;;;7.40;6.67;;;19.20;99.90;;;;;;944084;149;27358;-78
2022/09/25 11:32:34;;;;;;;7.20;6.60;;;19.20;99.90;;;;;;943218;149;27412;-78
2022/09/25 11:35:19;;;;;;;7.58;6.87;;;19.30;99.90;;;;;;943546;149;27346;-78
2022/09/25 11:37:55;;;;;;;6.70;6.12;;;19.40;99.90;;;;;;942210;149;27379;-78
2022/09/25 11:43:15;;;;;;;6.55;5.95;;;19.60;99.90;;;;;;943730;149;27958;-78
2022/09/25 11:45:48;;;;;;;7.87;7.17;;;19.70;99.90;;;;;;943428;149;27346;-78
2022/09/25 11:48:18;;;;;;;7.80;7.05;;;19.70;99.90;;;;;;943463;149;27429;-78
2022/09/25 11:50:43;;;;;;;8.83;8.03;;;19.70;99.90;;;;;;942667;149;27703;-78
2022/09/25 11:53:13;;;;;;;8.15;7.40;;;19.70;99.90;;;;;;942417;149;27713;-78
2022/09/25 11:56:08;;;;;;;8.78;7.97;;;19.50;99.90;;;;;;943431;148;27442;-78
2022/09/25 11:58:52;;;;;;;8.73;7.92;;;19.40;99.90;;;;;;942425;149;27372;-78
2022/09/25 12:01:34;;;;;;;8.65;7.83;;;19.20;99.90;;;;;;943865;149;27366;-77
2022/09/25 12:04:12;;;;;;;7.65;6.87;;;19.00;99.90;;;;;;943609;149;27321;-77
2022/09/25 12:06:52;;;;;;;9.10;8.13;;;18.70;99.90;;;;;;943151;149;27373;-78
2022/09/25 12:09:20;;;;;;;9.43;8.63;;;18.50;99.90;;;;;;944035;149;27449;-78
2022/09/25 12:12:08;;;;;;;9.48;8.20;;;18.30;99.90;;;;;;943184;149;27475;-78
2022/09/25 12:14:34;;;;;;;9.10;7.72;;;18.10;99.90;;;;;;943437;149;27342;-77
2022/09/25 12:17:07;;;;;;;10.15;9.15;;;17.90;99.90;;;;;;929109;149;27296;-77
2022/09/25 12:19:33;;;;;;;8.85;7.95;;;17.80;99.90;;;;;;943430;149;27478;-77
2022/09/25 12:22:08;;;;;;;8.53;7.22;;;17.70;99.90;;;;;;942655;149;27307;-78
2022/09/25 12:24:50;;;;;;;8.70;7.95;;;17.60;99.90;;;;;;943413;149;27419;-77
2022/09/25 12:27:32;;;;;;;8.15;7.45;;;17.50;99.90;;;;;;943843;149;27325;-77
2022/09/25 12:30:20;;;;;;;7.78;6.97;;;17.40;99.90;;;;;;942668;149;27394;-77
2022/09/25 12:33:07;;;;;;;8.30;7.42;;;17.30;99.90;;;;;;943959;149;27805;-77
2022/09/25 12:35:39;;;;;;;8.35;7.47;;;17.20;99.90;;;;;;944347;149;27338;-78
2022/09/25 12:38:37;;;;;;;9.05;8.13;;;17.10;99.90;;;;;;943377;149;27372;-77
2022/09/25 12:41:09;;;;;;;8.20;7.37;;;17.00;99.90;;;;;;943002;149;27369;-79
2022/09/25 12:43:47;;;;;;;7.87;7.05;;;17.00;99.90;;;;;;943652;149;27368;-79
2022/09/25 12:46:25;;;;;;;8.33;7.33;;;16.90;99.90;;;;;;943091;149;27309;-79
2022/09/25 12:48:54;;;;;;;9.55;7.65;;;16.90;99.90;;;;;;943608;149;27482;-78
2022/09/25 12:51:39;;;;;;;8.48;6.62;;;16.80;99.90;;;;;;943540;149;27278;-79
2022/09/25 12:54:22;;;;;;;7.15;6.50;;;16.80;99.90;;;;;;943973;149;27349;-78
2022/09/25 12:56:56;;;;;;;8.60;6.40;;;16.80;99.90;;;;;;943580;148;27415;-78
2022/09/25 12:59:57;;;;;;;7.83;6.58;;;16.70;99.90;;;;;;937849;149;27369;-78
2022/09/25 13:02:30;;;;;;;11.20;7.28;;;16.70;99.90;;;;;;942972;149;27441;-78
2022/09/25 13:04:56;;;;;;;7.00;6.03;;;16.70;99.90;;;;;;943940;149;27361;-78
2022/09/25 13:07:35;;;;;;;7.20;6.17;;;16.70;99.90;;;;;;943601;149;27368;-78
2022/09/25 13:10:02;;;;;;;7.10;6.15;;;16.70;99.90;;;;;;924882;149;27294;-78
2022/09/25 13:12:32;;;;;;;7.40;6.42;;;16.70;99.90;;;;;;943331;149;27335;-78
2022/09/25 13:14:57;;;;;;;5.83;5.28;;;16.60;99.90;;;;;;944031;148;27365;-78
2022/09/25 13:17:23;;;;;;;5.45;4.47;;;16.60;99.90;;;;;;943020;149;27346;-78